Time;durP1;ratioP1;P1;durP2;ratioP2;P2;SDS_P1;SDS_P2;PMS_P1;PMS_P2;Temp;Humidity;BMP_temperature;BMP_pressure;BME280_temperature;BME280_humidity;BME280_pressure;Samples;Min_cycle;Max_cycle;Signal;HPM_P1;HPM_P2
2022/11/10 00:01:23;;;;;;;68.77;19.63;;;5.90;99.90;;;;;;4213176;28;20044;-63
2022/11/10 00:03:27;;;;;;;193.53;21.10;;;5.80;99.90;;;;;;4212456;28;20430;-62
2022/11/10 00:05:28;;;;;;;80.47;17.63;;;5.70;99.90;;;;;;4212685;28;20855;-64
2022/11/10 00:07:29;;;;;;;182.37;28.53;;;5.70;99.90;;;;;;4211709;28;20136;-63
2022/11/10 00:09:32;;;;;;;131.53;21.57;;;5.70;99.90;;;;;;4212590;28;20032;-63
2022/11/10 00:11:33;;;;;;;43.87;17.20;;;5.80;99.90;;;;;;4213874;28;20032;-63
2022/11/10 00:16:59;;;;;;;49.63;18.43;;;5.80;99.90;;;;;;4212497;28;20052;-63
2022/11/10 00:18:22;;;;;;;96.17;19.90;;;5.80;99.90;;;;;;4213279;28;20081;-67
2022/11/10 00:20:23;;;;;;;164.27;20.47;;;5.80;99.90;;;;;;4213008;28;20545;-62
2022/11/10 00:22:25;;;;;;;92.33;17.10;;;5.80;99.90;;;;;;4212724;28;20024;-66
2022/11/10 00:24:27;;;;;;;99.67;16.07;;;5.80;99.90;;;;;;4212593;28;20044;-63
2022/11/10 00:26:28;;;;;;;85.47;16.43;;;5.70;99.90;;;;;;4212793;28;20036;-63
2022/11/10 00:28:31;;;;;;;153.67;20.50;;;5.70;99.90;;;;;;4202746;28;20113;-63
2022/11/10 00:30:32;;;;;;;69.70;15.90;;;5.60;99.90;;;;;;4195512;28;20478;-64
2022/11/10 00:32:33;;;;;;;95.57;17.63;;;5.60;99.90;;;;;;4196532;28;20094;-63
2022/11/10 00:34:35;;;;;;;106.23;21.93;;;5.60;99.90;;;;;;4196186;28;20524;-64
2022/11/10 00:36:36;;;;;;;180.53;25.17;;;5.60;99.90;;;;;;4195835;28;20481;-64
2022/11/10 00:38:37;;;;;;;186.63;24.37;;;5.60;99.90;;;;;;4198854;28;20047;-64
2022/11/10 00:40:38;;;;;;;92.33;19.53;;;5.60;99.90;;;;;;4212781;28;20044;-62
2022/11/10 00:42:39;;;;;;;88.57;18.00;;;5.60;99.90;;;;;;4206064;28;20691;-63
2022/11/10 00:44:40;;;;;;;161.87;26.73;;;5.60;99.90;;;;;;4196280;28;20029;-64
2022/11/10 00:46:42;;;;;;;78.03;15.97;;;5.60;99.90;;;;;;4195747;28;20522;-63
2022/11/10 00:48:43;;;;;;;167.30;21.47;;;5.60;99.90;;;;;;4195466;28;20435;-63
2022/11/10 00:50:44;;;;;;;94.67;17.90;;;5.70;99.90;;;;;;4196354;28;20078;-65
2022/11/10 00:52:45;;;;;;;109.77;19.97;;;5.60;99.90;;;;;;4195708;28;20048;-63
2022/11/10 00:54:46;;;;;;;82.30;17.07;;;5.60;99.90;;;;;;4196090;28;20038;-63
2022/11/10 00:56:47;;;;;;;168.00;20.07;;;5.60;99.90;;;;;;4195424;28;20434;-63
2022/11/10 00:58:49;;;;;;;53.03;15.87;;;5.60;99.90;;;;;;4178489;28;20098;-63
2022/11/10 01:00:50;;;;;;;84.80;17.37;;;5.60;99.90;;;;;;4195260;28;20094;-63
2022/11/10 01:02:52;;;;;;;215.73;24.57;;;5.60;99.90;;;;;;4196500;28;20040;-64
2022/11/10 01:04:53;;;;;;;74.37;17.63;;;5.60;99.90;;;;;;4210166;28;20046;-63
2022/11/10 01:06:54;;;;;;;126.50;20.93;;;5.50;99.90;;;;;;4199677;28;20041;-63
2022/11/10 01:08:55;;;;;;;113.73;18.63;;;5.60;99.90;;;;;;4194384;28;20056;-63
2022/11/10 01:11:04;;;;;;;221.67;24.17;;;5.50;99.90;;;;;;4196131;28;20032;-63
2022/11/10 01:13:05;;;;;;;58.70;16.63;;;5.50;99.90;;;;;;4177163;28;20087;-63
2022/11/10 01:15:07;;;;;;;103.83;17.93;;;5.50;99.90;;;;;;4200459;28;20430;-63
2022/11/10 01:17:08;;;;;;;122.63;19.10;;;5.50;99.90;;;;;;4211118;28;20032;-63
2022/11/10 01:19:09;;;;;;;106.20;17.93;;;5.50;99.90;;;;;;4211773;28;20101;-62
2022/11/10 01:21:10;;;;;;;137.43;20.07;;;5.40;99.90;;;;;;4212418;28;20101;-63
2022/11/10 01:23:11;;;;;;;130.30;19.17;;;5.40;99.90;;;;;;4212128;28;20036;-62
2022/11/10 01:25:12;;;;;;;118.27;17.53;;;5.40;99.90;;;;;;4211977;28;20365;-62
2022/11/10 01:27:13;;;;;;;263.37;25.87;;;5.40;99.90;;;;;;4211531;28;20028;-63
2022/11/10 01:29:15;;;;;;;280.37;30.47;;;5.40;99.90;;;;;;4212673;28;20093;-63
2022/11/10 01:31:19;;;;;;;127.23;22.47;;;5.40;99.90;;;;;;4211431;28;20028;-62
2022/11/10 01:33:20;;;;;;;149.80;23.10;;;5.40;99.90;;;;;;4212162;28;20441;-63
2022/11/10 01:35:21;;;;;;;87.23;18.03;;;5.40;99.90;;;;;;4211255;28;20024;-62
2022/11/10 01:37:22;;;;;;;64.53;18.47;;;5.40;99.90;;;;;;4210277;28;20077;-64
2022/11/10 01:39:23;;;;;;;60.03;16.97;;;5.40;99.90;;;;;;4203095;28;20113;-63
2022/11/10 01:41:25;;;;;;;116.57;19.50;;;5.50;99.90;;;;;;4195830;28;20438;-63
2022/11/10 01:43:26;;;;;;;96.17;16.57;;;5.50;99.90;;;;;;4194631;28;20024;-63
2022/11/10 01:45:52;;;;;;;116.47;19.00;;;5.40;99.90;;;;;;4194752;28;20098;-63
2022/11/10 01:48:01;;;;;;;157.03;20.17;;;5.40;99.90;;;;;;4192789;28;20048;-63
2022/11/10 01:50:02;;;;;;;76.33;17.77;;;5.40;99.90;;;;;;4202162;28;20074;-64
2022/11/10 01:52:10;;;;;;;97.23;19.57;;;5.40;99.90;;;;;;4194656;28;20085;-63
2022/11/10 01:54:15;;;;;;;142.07;19.00;;;5.40;99.90;;;;;;4196818;28;20032;-63
2022/11/10 01:56:16;;;;;;;104.43;17.50;;;5.40;99.90;;;;;;4194513;28;20025;-62
2022/11/10 01:58:22;;;;;;;146.20;20.37;;;5.40;99.90;;;;;;4194427;28;20032;-63
2022/11/10 02:00:23;;;;;;;133.10;21.97;;;5.30;99.90;;;;;;4194754;28;20545;-63
2022/11/10 02:02:32;;;;;;;140.37;19.70;;;5.40;99.90;;;;;;4194831;28;20148;-63
2022/11/10 02:04:34;;;;;;;89.27;18.23;;;5.30;99.90;;;;;;4194210;28;20442;-63
2022/11/10 02:06:38;;;;;;;63.43;16.43;;;5.30;99.90;;;;;;4205352;28;20039;-64
2022/11/10 02:08:41;;;;;;;72.37;16.03;;;5.20;99.90;;;;;;4211788;28;20499;-63
2022/11/10 02:10:43;;;;;;;80.10;18.30;;;5.20;99.90;;;;;;4211073;28;20089;-63
2022/11/10 02:12:45;;;;;;;56.00;16.40;;;5.20;99.90;;;;;;4211809;28;20036;-63
2022/11/10 02:14:46;;;;;;;63.63;15.00;;;5.20;99.90;;;;;;4210587;28;20036;-63
2022/11/10 02:16:48;;;;;;;78.07;16.67;;;5.10;99.90;;;;;;4211958;28;20485;-63
2022/11/10 02:18:49;;;;;;;84.30;18.10;;;5.10;99.90;;;;;;4210668;28;20040;-63
2022/11/10 02:20:50;;;;;;;74.47;15.37;;;5.10;99.90;;;;;;4212064;28;20027;-68
2022/11/10 02:22:51;;;;;;;59.30;13.30;;;5.10;99.90;;;;;;4206441;28;20054;-63
2022/11/10 02:24:52;;;;;;;59.97;13.80;;;5.10;99.90;;;;;;4199655;28;20031;-64
2022/11/10 02:26:55;;;;;;;87.93;15.17;;;5.00;99.90;;;;;;4204862;28;20029;-63
2022/11/10 02:28:56;;;;;;;31.13;13.47;;;5.00;99.90;;;;;;4206902;28;20475;-63
2022/11/10 02:30:57;;;;;;;37.70;13.20;;;5.00;99.90;;;;;;4210740;28;20472;-62
2022/11/10 02:32:58;;;;;;;65.77;14.70;;;5.10;99.90;;;;;;4210651;28;20086;-63
2022/11/10 02:34:59;;;;;;;42.50;13.23;;;5.10;99.90;;;;;;4210858;28;20036;-63
2022/11/10 02:37:01;;;;;;;198.03;18.73;;;5.10;99.90;;;;;;4210407;28;20051;-64
2022/11/10 02:39:02;;;;;;;126.23;18.43;;;5.10;99.90;;;;;;4211385;28;20484;-64
2022/11/10 02:41:03;;;;;;;167.40;18.13;;;5.00;99.90;;;;;;4194905;28;20082;-63
2022/11/10 02:43:07;;;;;;;61.00;14.37;;;5.00;99.90;;;;;;4194723;28;20082;-63
2022/11/10 02:45:08;;;;;;;46.00;13.33;;;5.00;99.90;;;;;;4193164;28;20044;-63
2022/11/10 02:47:09;;;;;;;22.83;9.93;;;4.90;99.90;;;;;;4194060;28;20041;-62
2022/11/10 02:49:10;;;;;;;21.53;9.40;;;4.80;99.90;;;;;;4203481;28;20441;-62
2022/11/10 02:51:11;;;;;;;23.40;9.80;;;4.70;99.90;;;;;;4209802;28;20048;-62
2022/11/10 02:53:12;;;;;;;23.23;8.93;;;4.60;99.90;;;;;;4193163;28;20106;-63
2022/11/10 02:55:13;;;;;;;21.03;9.07;;;4.60;99.90;;;;;;4194112;28;20044;-63
2022/11/10 02:57:15;;;;;;;20.73;10.13;;;4.50;99.90;;;;;;4192904;28;20105;-63
2022/11/10 02:59:16;;;;;;;26.53;10.30;;;4.50;99.90;;;;;;4194681;28;20074;-61
2022/11/10 03:01:17;;;;;;;20.60;10.13;;;4.50;99.90;;;;;;4204929;28;20044;-64
2022/11/10 03:03:18;;;;;;;25.00;9.63;;;4.40;99.90;;;;;;4211195;28;20024;-63
2022/11/10 03:05:19;;;;;;;21.63;9.67;;;4.50;99.90;;;;;;4209819;28;20062;-62
2022/11/10 03:07:20;;;;;;;78.40;12.60;;;4.50;99.90;;;;;;4210863;28;20074;-62
2022/11/10 03:09:21;;;;;;;25.27;9.53;;;4.40;99.90;;;;;;4210987;28;20041;-62
2022/11/10 03:11:22;;;;;;;24.93;9.70;;;4.40;99.90;;;;;;4210815;28;20062;-62
2022/11/10 03:13:24;;;;;;;26.13;10.30;;;4.40;99.90;;;;;;4210599;28;20488;-62
2022/11/10 03:15:26;;;;;;;29.20;10.30;;;4.40;99.90;;;;;;4204151;28;20114;-62
2022/11/10 03:17:27;;;;;;;33.83;10.20;;;4.50;99.90;;;;;;4193839;28;20041;-62
2022/11/10 03:19:29;;;;;;;20.80;9.87;;;4.50;99.90;;;;;;4193458;28;20090;-62
2022/11/10 03:21:30;;;;;;;26.00;10.37;;;4.50;99.90;;;;;;4195654;28;20036;-62
2022/11/10 03:23:32;;;;;;;34.87;10.80;;;4.50;99.90;;;;;;4193854;28;20078;-63
2022/11/10 03:25:33;;;;;;;35.53;10.37;;;4.50;99.90;;;;;;4184227;28;20509;-62
2022/11/10 03:27:35;;;;;;;30.57;10.80;;;4.50;99.90;;;;;;4198063;28;20036;-62
2022/11/10 03:29:36;;;;;;;27.27;10.90;;;4.50;99.90;;;;;;4210588;28;20044;-62
2022/11/10 03:31:37;;;;;;;28.20;10.57;;;4.50;99.90;;;;;;4210002;28;20040;-63
2022/11/10 03:33:38;;;;;;;23.73;10.53;;;4.50;99.90;;;;;;4211229;28;20028;-64
2022/11/10 03:35:39;;;;;;;23.77;11.30;;;4.60;99.90;;;;;;4210000;28;20501;-64
2022/11/10 03:37:41;;;;;;;25.00;11.20;;;4.60;99.90;;;;;;4209984;28;20097;-64
2022/11/10 03:39:42;;;;;;;25.20;10.63;;;4.70;99.90;;;;;;4209505;28;20056;-67
2022/11/10 03:41:43;;;;;;;27.23;11.17;;;4.70;99.90;;;;;;4210379;28;20077;-63
2022/11/10 03:43:44;;;;;;;28.90;10.37;;;4.70;99.90;;;;;;4200527;28;20394;-63
2022/11/10 03:45:45;;;;;;;21.57;11.07;;;4.70;99.90;;;;;;4209725;28;20023;-64
2022/11/10 03:47:48;;;;;;;23.17;10.53;;;4.70;99.90;;;;;;4210770;28;20077;-63
2022/11/10 03:49:49;;;;;;;25.57;11.77;;;4.70;99.90;;;;;;4203863;28;20893;-64
2022/11/10 03:51:50;;;;;;;24.83;9.93;;;4.70;99.90;;;;;;4193492;28;20382;-63
2022/11/10 03:53:51;;;;;;;70.07;11.33;;;4.70;99.90;;;;;;4192777;28;20044;-63
2022/11/10 03:55:52;;;;;;;44.80;10.77;;;4.70;99.90;;;;;;4194372;28;20037;-63
2022/11/10 03:57:53;;;;;;;59.67;11.83;;;4.60;99.90;;;;;;4197786;28;20101;-63
2022/11/10 03:59:54;;;;;;;60.60;13.50;;;4.60;99.90;;;;;;4195846;28;20082;-63
2022/11/10 04:01:55;;;;;;;35.67;12.17;;;4.70;99.90;;;;;;4192710;28;20479;-62
2022/11/10 04:03:56;;;;;;;28.30;11.87;;;4.70;99.90;;;;;;4193787;28;20033;-63
2022/11/10 04:10:37;;;;;;;37.83;10.03;;;4.80;99.90;;;;;;4194053;28;20076;-63
2022/11/10 04:17:18;;;;;;;37.60;11.77;;;4.60;99.90;;;;;;4214152;28;20040;-64
2022/11/10 04:19:19;;;;;;;29.60;10.33;;;4.50;99.90;;;;;;4212660;28;20036;-62
2022/11/10 04:21:20;;;;;;;27.13;10.50;;;4.50;99.90;;;;;;4213738;28;20472;-63
2022/11/10 04:23:26;;;;;;;41.20;10.13;;;4.50;99.90;;;;;;4212928;28;20020;-63
2022/11/10 04:25:27;;;;;;;24.60;10.03;;;4.40;99.90;;;;;;4202910;28;20060;-63
2022/11/10 04:27:28;;;;;;;32.50;10.43;;;4.40;99.90;;;;;;4208616;28;20028;-63
2022/11/10 04:29:29;;;;;;;31.93;9.67;;;4.40;99.90;;;;;;4207321;28;20361;-63
2022/11/10 04:31:32;;;;;;;23.97;10.33;;;4.40;99.90;;;;;;4207612;28;20089;-64
2022/11/10 04:33:36;;;;;;;105.80;12.90;;;4.40;99.90;;;;;;4207033;28;20052;-63
2022/11/10 04:35:37;;;;;;;44.83;10.73;;;4.40;99.90;;;;;;4207988;28;20326;-62
2022/11/10 04:37:38;;;;;;;41.27;10.97;;;4.40;99.90;;;;;;4211823;28;20040;-62
2022/11/10 04:39:39;;;;;;;53.97;11.83;;;4.30;99.90;;;;;;4213461;28;20564;-62
2022/11/10 04:41:40;;;;;;;57.00;11.47;;;4.30;99.90;;;;;;4211588;28;20070;-62
2022/11/10 04:43:42;;;;;;;37.90;12.03;;;4.30;99.90;;;;;;4208547;28;20154;-62
2022/11/10 04:45:43;;;;;;;57.93;11.73;;;4.40;99.90;;;;;;4200274;28;20025;-62
2022/11/10 04:47:44;;;;;;;104.03;14.30;;;4.40;99.90;;;;;;4196517;28;20032;-63
2022/11/10 04:49:45;;;;;;;54.93;13.33;;;4.30;99.90;;;;;;4195213;28;20265;-62
2022/11/10 04:51:46;;;;;;;38.50;11.57;;;4.40;99.90;;;;;;4196153;28;20476;-63
2022/11/10 04:53:47;;;;;;;41.43;12.70;;;4.40;99.90;;;;;;4200861;28;20358;-63
2022/11/10 04:55:48;;;;;;;34.20;12.87;;;4.40;99.90;;;;;;4212880;28;20028;-64
2022/11/10 04:57:49;;;;;;;51.07;12.23;;;4.50;99.90;;;;;;4212048;28;20306;-64
2022/11/10 04:59:50;;;;;;;37.03;12.60;;;4.50;99.90;;;;;;4209405;28;20031;-64
2022/11/10 05:01:51;;;;;;;41.83;11.57;;;4.50;99.90;;;;;;4195968;28;20074;-65
2022/11/10 05:03:53;;;;;;;75.57;13.90;;;4.50;99.90;;;;;;4195244;28;20059;-64
2022/11/10 05:05:54;;;;;;;49.57;12.10;;;4.50;99.90;;;;;;4194714;28;20447;-63
2022/11/10 05:07:56;;;;;;;46.30;12.83;;;4.50;99.90;;;;;;4194271;28;20048;-63
2022/11/10 05:09:57;;;;;;;38.97;13.60;;;4.50;99.90;;;;;;4198213;28;20438;-64
2022/11/10 05:11:58;;;;;;;37.30;12.33;;;4.50;99.90;;;;;;4209237;28;20086;-62
2022/11/10 05:13:59;;;;;;;42.47;12.47;;;4.50;99.90;;;;;;4195514;28;20687;-63
2022/11/10 05:16:01;;;;;;;37.00;13.23;;;4.50;99.90;;;;;;4193957;28;20040;-63
2022/11/10 05:18:02;;;;;;;35.40;12.17;;;4.50;99.90;;;;;;4210720;28;20036;-64
2022/11/10 05:20:04;;;;;;;27.47;11.27;;;4.50;99.90;;;;;;4209844;28;20047;-64
2022/11/10 05:22:06;;;;;;;31.07;14.30;;;4.50;99.90;;;;;;4206752;28;20028;-62
2022/11/10 05:24:07;;;;;;;31.93;13.50;;;4.40;99.90;;;;;;4210985;28;20090;-64
2022/11/10 05:26:14;;;;;;;30.40;13.37;;;4.50;99.90;;;;;;4212394;28;20426;-63
2022/11/10 05:28:15;;;;;;;34.37;13.80;;;4.50;99.90;;;;;;4202409;28;20021;-64
2022/11/10 05:30:17;;;;;;;51.93;14.97;;;4.50;99.90;;;;;;4195037;28;20082;-62
2022/11/10 05:32:18;;;;;;;42.67;15.47;;;4.50;99.90;;;;;;4193917;28;20033;-65
2022/11/10 05:34:19;;;;;;;54.23;17.37;;;4.40;99.90;;;;;;4194817;28;20044;-65
2022/11/10 05:36:20;;;;;;;57.10;18.10;;;4.40;99.90;;;;;;4194086;28;20041;-63
2022/11/10 05:38:21;;;;;;;67.43;16.97;;;4.30;99.90;;;;;;4193354;28;20492;-63
2022/11/10 05:40:23;;;;;;;48.73;16.27;;;4.30;99.90;;;;;;4194218;28;20032;-63
2022/11/10 05:42:24;;;;;;;82.90;18.30;;;4.40;99.90;;;;;;4194743;28;20295;-64
2022/11/10 05:44:26;;;;;;;144.13;20.03;;;4.40;99.90;;;;;;4192459;28;20637;-64
2022/11/10 05:46:27;;;;;;;65.27;16.40;;;4.40;99.90;;;;;;4195134;28;20365;-64
2022/11/10 05:48:28;;;;;;;64.57;16.70;;;4.40;99.90;;;;;;4212372;28;20024;-64
2022/11/10 05:50:29;;;;;;;38.87;14.27;;;4.40;99.90;;;;;;4210284;28;20774;-65
2022/11/10 05:52:30;;;;;;;49.40;13.27;;;4.40;99.90;;;;;;4211235;28;20264;-64
2022/11/10 05:54:31;;;;;;;36.87;13.87;;;4.50;99.90;;;;;;4194091;28;20058;-65
2022/11/10 05:56:32;;;;;;;68.87;13.63;;;4.40;99.90;;;;;;4194964;28;20423;-64
2022/11/10 05:58:33;;;;;;;45.33;14.57;;;4.40;99.90;;;;;;4193413;28;20070;-63
2022/11/10 06:00:35;;;;;;;36.13;13.37;;;4.40;99.90;;;;;;4193364;28;20036;-64
2022/11/10 06:02:36;;;;;;;55.50;13.33;;;4.40;99.90;;;;;;4193855;28;20665;-64
2022/11/10 06:04:37;;;;;;;33.93;13.37;;;4.40;99.90;;;;;;4193946;28;20044;-66
2022/11/10 06:06:38;;;;;;;81.57;15.43;;;4.40;99.90;;;;;;4199354;28;20492;-65
2022/11/10 06:08:39;;;;;;;77.80;16.13;;;4.40;99.90;;;;;;4193219;28;20289;-65
2022/11/10 06:10:40;;;;;;;92.07;16.10;;;4.50;99.90;;;;;;4195884;28;20040;-67
2022/11/10 06:12:41;;;;;;;65.53;15.50;;;4.50;99.90;;;;;;4193700;28;20586;-63
2022/11/10 06:14:42;;;;;;;83.07;15.93;;;4.50;99.90;;;;;;4194066;28;20093;-64
2022/11/10 06:16:44;;;;;;;69.13;15.37;;;4.50;99.90;;;;;;4191796;28;20104;-63
2022/11/10 06:18:45;;;;;;;46.47;14.23;;;4.60;99.90;;;;;;4192623;28;20883;-63
2022/11/10 06:20:46;;;;;;;64.63;14.63;;;4.60;99.90;;;;;;4191987;28;20269;-63
2022/11/10 06:23:10;;;;;;;36.83;13.77;;;4.60;99.90;;;;;;4193903;28;20334;-63
2022/11/10 06:25:11;;;;;;;39.60;14.07;;;4.60;99.90;;;;;;4192186;28;20350;-63
2022/11/10 06:27:12;;;;;;;31.30;13.07;;;4.70;99.90;;;;;;4194391;28;20078;-62
2022/11/10 06:29:14;;;;;;;30.67;12.53;;;4.70;99.90;;;;;;4193609;28;20276;-63
2022/11/10 06:31:15;;;;;;;32.40;14.37;;;4.70;99.90;;;;;;4176721;28;20186;-63
2022/11/10 06:33:16;;;;;;;27.57;12.03;;;4.70;99.90;;;;;;4174439;28;20491;-63
2022/11/10 06:35:17;;;;;;;22.37;10.53;;;4.70;99.90;;;;;;4193792;28;20040;-65
2022/11/10 06:37:18;;;;;;;26.40;12.23;;;4.70;99.90;;;;;;4193415;28;21046;-63
2022/11/10 06:39:19;;;;;;;21.17;11.20;;;4.70;99.90;;;;;;4193936;28;20078;-64
2022/11/10 06:41:20;;;;;;;26.40;12.80;;;4.80;99.90;;;;;;4193986;28;20033;-64
2022/11/10 06:43:21;;;;;;;41.43;18.07;;;4.80;99.90;;;;;;4175845;28;20059;-64
2022/11/10 06:45:23;;;;;;;40.90;18.47;;;4.80;99.90;;;;;;4193530;28;20550;-63
2022/11/10 06:47:25;;;;;;;39.07;19.17;;;4.80;99.90;;;;;;4193231;28;20078;-64
2022/11/10 06:49:26;;;;;;;43.47;19.23;;;4.80;99.90;;;;;;4194445;28;20604;-64
2022/11/10 06:51:27;;;;;;;50.53;20.77;;;4.90;99.90;;;;;;4192693;28;20040;-63
2022/11/10 06:53:28;;;;;;;48.37;19.97;;;4.90;99.90;;;;;;4194410;28;20470;-63
2022/11/10 06:55:30;;;;;;;40.40;19.87;;;5.00;99.90;;;;;;4193382;28;20040;-64
2022/11/10 06:57:38;;;;;;;56.13;21.30;;;4.90;99.90;;;;;;4194258;28;20150;-63
2022/11/10 06:59:39;;;;;;;22.83;11.47;;;5.00;99.90;;;;;;4192240;28;20091;-63
2022/11/10 07:01:40;;;;;;;18.50;9.47;;;5.00;99.90;;;;;;4193888;28;20099;-64
2022/11/10 07:03:41;;;;;;;19.73;9.63;;;5.00;99.90;;;;;;4192548;28;20815;-62
2022/11/10 07:05:42;;;;;;;18.10;9.70;;;5.10;99.90;;;;;;4194094;28;20036;-64
2022/11/10 07:07:43;;;;;;;20.10;9.43;;;5.10;99.90;;;;;;4174895;28;20098;-63
2022/11/10 07:09:44;;;;;;;18.03;9.80;;;5.20;99.90;;;;;;4193811;28;20033;-63
2022/11/10 07:11:45;;;;;;;18.10;9.10;;;5.10;99.90;;;;;;4192771;28;20447;-63
2022/11/10 07:13:47;;;;;;;14.37;7.97;;;5.10;99.90;;;;;;4193537;28;20113;-63
2022/11/10 07:15:48;;;;;;;20.77;9.97;;;5.20;99.90;;;;;;4192632;28;20098;-63
2022/11/10 07:17:49;;;;;;;28.53;13.83;;;5.20;99.90;;;;;;4192257;28;20140;-62
2022/11/10 07:19:50;;;;;;;20.40;9.70;;;5.20;99.90;;;;;;4194125;28;20028;-63
2022/11/10 07:21:51;;;;;;;15.00;7.73;;;5.20;99.90;;;;;;4192305;28;20036;-63
2022/11/10 07:23:52;;;;;;;16.13;8.80;;;5.20;99.90;;;;;;4193792;28;20087;-63
2022/11/10 07:25:53;;;;;;;17.57;9.67;;;5.20;99.90;;;;;;4192572;28;20036;-64
2022/11/10 07:27:56;;;;;;;18.57;9.00;;;5.30;99.90;;;;;;4194211;28;20462;-63
2022/11/10 07:29:57;;;;;;;16.00;8.80;;;5.30;99.90;;;;;;4192927;28;20070;-63
2022/11/10 07:31:59;;;;;;;23.03;9.57;;;5.30;99.90;;;;;;4194251;28;20040;-63
2022/11/10 07:34:00;;;;;;;13.67;7.37;;;5.30;99.90;;;;;;4191808;28;20094;-64
2022/11/10 07:36:02;;;;;;;15.30;8.90;;;5.40;99.90;;;;;;4194096;28;20024;-65
2022/11/10 07:38:06;;;;;;;15.77;8.50;;;5.40;99.90;;;;;;4192445;28;20094;-63
2022/11/10 07:40:07;;;;;;;16.63;9.00;;;5.40;99.90;;;;;;4193750;28;20078;-64
2022/11/10 07:42:08;;;;;;;12.70;7.60;;;5.50;99.90;;;;;;4192865;28;20558;-63
2022/11/10 07:44:09;;;;;;;13.63;7.10;;;5.50;99.90;;;;;;4193188;28;20029;-63
2022/11/10 07:46:11;;;;;;;14.03;7.43;;;5.50;99.90;;;;;;4195383;28;20082;-64
2022/11/10 07:48:12;;;;;;;14.90;7.37;;;5.50;99.90;;;;;;4196066;28;20041;-64
2022/11/10 07:50:13;;;;;;;11.37;7.50;;;5.60;99.90;;;;;;4196572;28;20036;-63
2022/11/10 07:52:14;;;;;;;15.10;8.23;;;5.70;99.90;;;;;;4195580;28;20079;-63
2022/11/10 07:54:15;;;;;;;20.67;8.67;;;5.70;99.90;;;;;;4197075;28;20062;-63
2022/11/10 07:56:16;;;;;;;11.67;6.47;;;5.70;99.90;;;;;;4196183;28;20021;-64
2022/11/10 07:58:17;;;;;;;12.70;8.03;;;5.70;99.90;;;;;;4196241;28;20032;-64
2022/11/10 08:00:19;;;;;;;15.33;8.20;;;5.80;99.90;;;;;;4195105;28;20041;-63
2022/11/10 08:02:20;;;;;;;15.87;8.13;;;5.80;99.90;;;;;;4196314;28;20563;-62
2022/11/10 08:04:21;;;;;;;16.70;9.30;;;5.90;99.90;;;;;;4195728;28;20037;-63
2022/11/10 08:06:22;;;;;;;14.13;7.50;;;5.90;99.90;;;;;;4196104;28;20492;-63
2022/11/10 08:08:23;;;;;;;22.57;8.60;;;5.90;99.90;;;;;;4194976;28;20037;-64
2022/11/10 08:10:25;;;;;;;15.23;7.63;;;5.90;99.90;;;;;;4196492;28;20028;-63
2022/11/10 08:12:26;;;;;;;14.13;7.87;;;6.00;99.90;;;;;;4196080;28;20074;-63
2022/11/10 08:14:27;;;;;;;11.87;7.00;;;6.00;99.90;;;;;;4196045;28;20028;-64
2022/11/10 08:16:28;;;;;;;13.80;7.23;;;6.00;99.90;;;;;;4196241;28;20025;-63
2022/11/10 08:18:29;;;;;;;14.07;7.47;;;6.00;99.90;;;;;;4194610;28;20037;-63
2022/11/10 08:20:30;;;;;;;14.13;7.73;;;6.00;99.90;;;;;;4195611;28;20161;-63
2022/11/10 08:22:31;;;;;;;23.17;9.63;;;6.00;99.90;;;;;;4195537;28;20465;-64
2022/11/10 08:24:32;;;;;;;13.43;7.67;;;6.00;99.90;;;;;;4196794;28;20090;-64
2022/11/10 08:26:33;;;;;;;13.13;7.43;;;6.10;99.90;;;;;;4195093;28;20036;-63
2022/11/10 08:28:35;;;;;;;14.57;8.03;;;6.10;99.90;;;;;;4196587;28;20020;-63
2022/11/10 08:30:37;;;;;;;17.37;7.93;;;6.10;99.90;;;;;;4195124;28;20496;-63
2022/11/10 08:32:38;;;;;;;15.50;7.87;;;6.10;99.90;;;;;;4196705;28;20033;-64
2022/11/10 08:34:39;;;;;;;15.73;8.40;;;6.20;99.90;;;;;;4176886;28;20089;-64
2022/11/10 08:36:40;;;;;;;13.73;8.53;;;6.20;99.90;;;;;;4196124;28;20036;-62
2022/11/10 08:38:41;;;;;;;18.03;8.50;;;6.20;99.90;;;;;;4194479;28;20476;-64
2022/11/10 08:40:43;;;;;;;18.03;9.93;;;6.20;99.90;;;;;;4196046;28;20074;-63
2022/11/10 08:42:46;;;;;;;14.43;8.37;;;6.20;99.90;;;;;;4195481;28;20606;-64
2022/11/10 08:44:47;;;;;;;16.47;9.37;;;6.20;99.90;;;;;;4195646;28;20070;-64
2022/11/10 08:46:48;;;;;;;15.87;8.73;;;6.20;99.90;;;;;;4195503;28;20546;-63
2022/11/10 08:48:49;;;;;;;14.77;8.20;;;6.30;99.90;;;;;;4195119;28;20059;-63
2022/11/10 08:50:50;;;;;;;17.23;9.27;;;6.20;99.90;;;;;;4195734;28;20427;-64
2022/11/10 08:52:51;;;;;;;19.03;8.90;;;6.20;99.90;;;;;;4193586;28;20563;-63
2022/11/10 08:54:52;;;;;;;21.40;9.73;;;6.20;99.90;;;;;;4196131;28;20434;-64
2022/11/10 08:56:54;;;;;;;15.63;8.27;;;6.20;99.90;;;;;;4193602;28;20114;-63
2022/11/10 08:58:55;;;;;;;14.00;8.37;;;6.20;99.90;;;;;;4177665;28;20520;-63
2022/11/10 09:00:56;;;;;;;17.37;9.20;;;6.20;99.90;;;;;;4195007;28;20121;-65
2022/11/10 09:03:10;;;;;;;19.47;10.10;;;6.30;99.90;;;;;;4195362;28;20443;-64
2022/11/10 09:05:11;;;;;;;17.03;9.07;;;6.30;99.90;;;;;;4194165;28;20451;-63
2022/11/10 09:07:12;;;;;;;17.07;9.17;;;6.40;99.90;;;;;;4195731;28;20028;-64
2022/11/10 09:09:13;;;;;;;18.57;9.47;;;6.30;99.90;;;;;;4194772;28;20382;-63
2022/11/10 09:11:14;;;;;;;16.97;9.50;;;6.40;99.90;;;;;;4195036;28;20048;-64
2022/11/10 09:13:17;;;;;;;19.23;9.43;;;6.40;99.90;;;;;;4193878;28;20025;-63
2022/11/10 09:15:18;;;;;;;20.83;8.70;;;6.40;99.90;;;;;;4194240;28;20041;-64
2022/11/10 09:17:19;;;;;;;13.60;8.17;;;6.40;99.90;;;;;;4194197;28;20028;-63
2022/11/10 09:19:20;;;;;;;16.43;9.30;;;6.50;99.90;;;;;;4194295;28;20556;-64
2022/11/10 09:21:22;;;;;;;19.27;10.50;;;6.60;99.90;;;;;;4195015;28;20082;-64
2022/11/10 09:23:23;;;;;;;16.00;8.50;;;6.60;99.90;;;;;;4193784;28;20044;-63
2022/11/10 09:25:24;;;;;;;15.13;8.30;;;6.60;99.90;;;;;;4195574;28;20029;-62
2022/11/10 09:27:26;;;;;;;14.13;7.93;;;6.70;99.90;;;;;;4194366;28;20021;-63
2022/11/10 09:29:27;;;;;;;15.27;7.93;;;6.70;99.90;;;;;;4195110;28;20040;-62
2022/11/10 09:31:28;;;;;;;12.90;7.43;;;6.60;99.90;;;;;;4175932;28;20691;-64
2022/11/10 09:33:29;;;;;;;28.57;14.37;;;6.70;99.90;;;;;;4195302;28;20029;-62
2022/11/10 09:35:30;;;;;;;20.83;9.00;;;6.70;99.90;;;;;;4194325;28;20463;-63
2022/11/10 09:37:31;;;;;;;17.83;9.07;;;6.70;99.90;;;;;;4195213;28;20048;-64
2022/11/10 09:39:32;;;;;;;14.43;9.27;;;6.80;99.90;;;;;;4193733;28;20054;-64
2022/11/10 09:41:39;;;;;;;16.17;9.27;;;6.80;99.90;;;;;;4195199;28;20033;-64
2022/11/10 09:44:01;;;;;;;16.30;9.83;;;6.80;99.90;;;;;;4193989;28;20082;-64
2022/11/10 09:46:22;;;;;;;18.00;10.47;;;6.80;99.90;;;;;;4194634;28;20037;-63
2022/11/10 09:48:34;;;;;;;16.95;9.65;;;6.80;99.90;;;;;;4193979;28;20029;-63
2022/11/10 09:50:42;;;;;;;15.50;9.07;;;6.90;99.90;;;;;;4195142;28;20368;-63
2022/11/10 09:52:44;;;;;;;14.77;8.40;;;6.90;99.90;;;;;;4193719;28;20024;-63
2022/11/10 09:54:52;;;;;;;13.97;8.43;;;6.90;99.90;;;;;;4194248;28;20040;-64
2022/11/10 09:56:59;;;;;;;17.03;10.03;;;6.90;99.90;;;;;;4193725;28;20037;-64
2022/11/10 09:59:06;;;;;;;20.80;9.83;;;7.00;99.90;;;;;;4194489;28;20078;-65
2022/11/10 10:01:22;;;;;;;17.60;9.67;;;7.00;99.90;;;;;;4194094;28;20029;-63
2022/11/10 10:03:28;;;;;;;29.53;10.40;;;6.90;99.90;;;;;;4195024;28;20542;-64
2022/11/10 10:05:36;;;;;;;16.87;9.10;;;7.00;99.90;;;;;;4193793;28;20033;-63
2022/11/10 10:07:50;;;;;;;20.43;11.30;;;7.00;99.90;;;;;;4176372;28;20098;-62
2022/11/10 10:09:57;;;;;;;20.17;11.50;;;7.00;99.90;;;;;;4193637;28;20074;-62
2022/11/10 10:12:42;;;;;;;26.90;12.33;;;7.00;99.90;;;;;;4194461;28;20090;-63
2022/11/10 10:14:58;;;;;;;21.77;12.97;;;7.10;99.90;;;;;;4160440;28;20059;-63
2022/11/10 10:17:11;;;;;;;22.27;12.27;;;7.20;99.90;;;;;;4194431;28;20036;-63
2022/11/10 10:19:30;;;;;;;28.40;12.90;;;7.20;99.90;;;;;;4192871;28;20029;-63
2022/11/10 10:21:41;;;;;;;24.23;13.17;;;7.20;99.90;;;;;;4194900;28;20494;-62
2022/11/10 10:23:51;;;;;;;24.70;14.70;;;7.30;99.90;;;;;;4193363;28;20025;-63
2022/11/10 10:25:53;;;;;;;22.33;13.68;;;7.30;99.90;;;;;;4194175;28;20048;-63
2022/11/10 10:28:06;;;;;;;25.00;14.33;;;7.30;99.90;;;;;;4193651;28;20081;-64
2022/11/10 10:30:16;;;;;;;27.40;15.80;;;7.30;99.90;;;;;;4194660;28;20028;-65
2022/11/10 10:32:21;;;;;;;25.90;15.73;;;7.30;99.90;;;;;;4193193;28;20439;-63
2022/11/10 10:34:29;;;;;;;23.83;15.43;;;7.40;99.90;;;;;;4194586;28;20016;-64
2022/11/10 10:36:30;;;;;;;34.97;16.77;;;7.40;99.90;;;;;;4175355;28;20045;-64
2022/11/10 10:38:38;;;;;;;33.80;16.03;;;7.40;99.90;;;;;;4194269;28;20480;-64
2022/11/10 10:40:48;;;;;;;29.70;16.87;;;7.40;99.90;;;;;;4193256;28;20028;-63
2022/11/10 10:42:49;;;;;;;23.33;12.80;;;7.50;99.90;;;;;;4194129;28;20086;-63